Time;durP1;ratioP1;P1;durP2;ratioP2;P2;SDS_P1;SDS_P2;PMS_P1;PMS_P2;Temp;Humidity;BMP_temperature;BMP_pressure;BME280_temperature;BME280_humidity;BME280_pressure;Samples;Min_cycle;Max_cycle;Signal;HPM_P1;HPM_P2
2021/06/19 00:02:06;;;;;;;58.40;2.87;;;23.60;1.00;;;;;;5114313;28;20997;-67
2021/06/19 00:04:33;;;;;;;58.27;2.40;;;23.50;1.00;;;;;;5113740;28;20839;-67
2021/06/19 00:07:03;;;;;;;58.60;2.30;;;23.50;1.00;;;;;;5113580;28;20999;-66
2021/06/19 00:09:31;;;;;;;58.27;2.40;;;23.40;1.00;;;;;;5113817;28;20575;-66
2021/06/19 00:11:58;;;;;;;58.53;2.47;;;23.40;1.00;;;;;;5112728;28;20449;-67
2021/06/19 00:14:25;;;;;;;58.07;2.20;;;23.40;1.00;;;;;;5113633;28;20535;-67
2021/06/19 00:16:51;;;;;;;58.13;2.30;;;23.30;1.00;;;;;;5113398;28;20478;-67
2021/06/19 00:19:18;;;;;;;58.30;2.40;;;23.30;1.00;;;;;;5113340;28;20548;-67
2021/06/19 00:21:45;;;;;;;58.80;2.77;;;23.30;1.00;;;;;;5113448;28;20451;-66
2021/06/19 00:24:18;;;;;;;58.40;2.53;;;23.30;1.00;;;;;;5113742;28;20445;-67
2021/06/19 00:26:46;;;;;;;58.30;2.57;;;23.20;1.00;;;;;;5113315;28;20869;-66
2021/06/19 00:29:13;;;;;;;58.40;2.50;;;23.20;1.00;;;;;;5113331;28;20571;-67
2021/06/19 00:31:39;;;;;;;58.47;2.60;;;23.20;1.00;;;;;;5113355;28;20533;-67
2021/06/19 00:34:06;;;;;;;58.80;3.50;;;23.10;1.00;;;;;;5113448;28;20533;-67
2021/06/19 00:36:33;;;;;;;58.37;2.50;;;23.10;1.00;;;;;;5113184;28;20536;-67
2021/06/19 00:39:00;;;;;;;58.50;2.77;;;23.00;1.00;;;;;;5113266;28;20493;-67
2021/06/19 00:41:28;;;;;;;58.00;2.53;;;23.00;1.00;;;;;;5113227;28;20473;-67
2021/06/19 00:43:55;;;;;;;58.80;2.80;;;23.00;1.00;;;;;;5113310;28;20537;-66
2021/06/19 00:46:22;;;;;;;58.33;2.30;;;23.10;1.00;;;;;;5113153;28;20447;-67
2021/06/19 00:48:49;;;;;;;59.17;4.57;;;23.30;1.00;;;;;;5112889;28;20582;-68
2021/06/19 00:51:15;;;;;;;58.27;2.40;;;23.40;1.00;;;;;;5113036;28;20477;-68
2021/06/19 00:53:42;;;;;;;58.37;2.70;;;23.50;1.00;;;;;;5113013;28;20483;-68
2021/06/19 00:56:10;;;;;;;58.03;2.30;;;23.60;1.00;;;;;;5112684;28;20480;-68
2021/06/19 00:58:39;;;;;;;58.27;2.60;;;23.60;1.00;;;;;;5112521;28;20544;-68
2021/06/19 01:01:06;;;;;;;58.20;2.20;;;23.70;1.00;;;;;;5112957;28;20563;-68
2021/06/19 01:03:33;;;;;;;58.77;2.67;;;23.70;1.00;;;;;;5112896;28;20473;-68
2021/06/19 01:06:00;;;;;;;58.07;2.20;;;23.70;1.00;;;;;;5112773;28;20537;-70
2021/06/19 01:08:27;;;;;;;59.67;3.43;;;23.70;1.00;;;;;;5112503;28;20911;-68
2021/06/19 01:10:55;;;;;;;57.97;2.20;;;23.70;1.00;;;;;;5112550;28;20551;-68
2021/06/19 01:13:23;;;;;;;58.27;2.90;;;23.70;1.00;;;;;;5112407;28;20524;-68
2021/06/19 01:15:51;;;;;;;57.90;2.20;;;23.70;1.00;;;;;;5112914;28;20803;-68
2021/06/19 01:18:18;;;;;;;58.57;2.80;;;23.70;1.00;;;;;;5112293;28;20553;-68
2021/06/19 01:20:45;;;;;;;58.07;2.30;;;23.70;1.00;;;;;;5112513;28;20842;-68
2021/06/19 01:23:12;;;;;;;57.87;2.20;;;23.60;1.00;;;;;;5112049;28;21032;-68
2021/06/19 01:25:40;;;;;;;58.17;2.60;;;23.70;1.00;;;;;;5112342;28;20527;-68
2021/06/19 01:28:10;;;;;;;58.00;2.30;;;23.60;1.00;;;;;;5111383;28;20484;-67
2021/06/19 01:30:39;;;;;;;58.43;2.57;;;23.80;1.00;;;;;;5112332;28;20449;-68
2021/06/19 01:33:08;;;;;;;58.10;2.30;;;23.80;1.00;;;;;;5112198;28;20456;-68
2021/06/19 01:35:35;;;;;;;58.40;2.50;;;23.70;1.00;;;;;;5112375;28;20441;-67
2021/06/19 01:38:02;;;;;;;57.97;2.20;;;23.60;1.00;;;;;;5111966;28;20473;-68
2021/06/19 01:40:30;;;;;;;58.07;2.30;;;23.50;1.00;;;;;;5112066;28;20455;-68
2021/06/19 01:43:00;;;;;;;57.97;2.30;;;23.40;1.00;;;;;;5112154;28;20481;-67
2021/06/19 01:45:29;;;;;;;58.20;2.60;;;23.30;1.00;;;;;;5112371;28;20528;-68
2021/06/19 01:47:59;;;;;;;58.13;2.63;;;23.20;1.00;;;;;;5111916;28;20468;-69
2021/06/19 01:50:26;;;;;;;58.13;2.30;;;23.00;1.00;;;;;;5112313;28;20477;-68
2021/06/19 01:52:54;;;;;;;58.23;2.70;;;22.90;1.00;;;;;;5111847;28;20477;-68
2021/06/19 01:55:21;;;;;;;58.37;2.50;;;22.80;1.00;;;;;;5112226;28;20813;-69
2021/06/19 01:57:52;;;;;;;58.80;2.90;;;22.70;1.00;;;;;;5111940;28;20529;-68
2021/06/19 02:00:22;;;;;;;58.27;2.50;;;22.60;1.00;;;;;;5112130;28;20537;-68
2021/06/19 02:02:49;;;;;;;58.37;2.50;;;22.50;1.00;;;;;;5112478;28;20811;-68
2021/06/19 02:05:17;;;;;;;59.67;3.57;;;22.40;1.00;;;;;;5111956;28;20544;-67
2021/06/19 02:07:48;;;;;;;58.67;2.57;;;22.40;1.00;;;;;;5112248;28;20445;-67
2021/06/19 02:10:16;;;;;;;58.67;2.83;;;22.30;1.00;;;;;;5111744;28;20575;-67
2021/06/19 02:12:44;;;;;;;59.10;3.53;;;22.30;1.00;;;;;;5111923;28;21018;-68
2021/06/19 02:15:11;;;;;;;58.60;2.63;;;22.20;1.00;;;;;;5111856;28;20445;-68
2021/06/19 02:17:40;;;;;;;58.77;2.80;;;22.20;1.00;;;;;;5111709;28;20480;-67
2021/06/19 02:20:09;;;;;;;58.57;2.57;;;22.10;1.00;;;;;;5112122;28;20549;-68
2021/06/19 02:22:36;;;;;;;59.07;3.20;;;22.10;1.00;;;;;;5111812;28;20539;-68
2021/06/19 02:25:04;;;;;;;58.47;2.57;;;22.10;1.00;;;;;;5112076;28;20447;-68
2021/06/19 02:27:31;;;;;;;58.37;2.83;;;22.00;1.00;;;;;;5111893;28;20445;-68
2021/06/19 02:29:58;;;;;;;58.60;2.90;;;22.00;1.00;;;;;;5111598;28;20582;-68
2021/06/19 02:32:25;;;;;;;58.90;3.20;;;21.90;1.00;;;;;;5111515;28;20535;-68
2021/06/19 02:34:53;;;;;;;58.80;3.40;;;21.90;1.00;;;;;;5114078;28;20484;-68
2021/06/19 02:37:20;;;;;;;58.77;3.57;;;21.80;1.00;;;;;;5115432;28;20539;-67
2021/06/19 02:39:47;;;;;;;58.70;2.70;;;21.80;1.00;;;;;;5115537;28;20546;-68
2021/06/19 02:42:14;;;;;;;58.47;2.50;;;21.70;1.00;;;;;;5115503;28;20448;-67
2021/06/19 02:44:41;;;;;;;58.70;2.70;;;21.80;1.00;;;;;;5115500;28;20892;-67
2021/06/19 02:47:08;;;;;;;58.47;2.67;;;21.70;1.00;;;;;;5115300;28;20487;-68
2021/06/19 02:49:35;;;;;;;59.60;3.53;;;21.70;1.00;;;;;;5115431;28;20491;-68
2021/06/19 02:52:03;;;;;;;58.47;2.57;;;21.60;1.00;;;;;;5115169;28;20545;-69
2021/06/19 02:54:30;;;;;;;58.47;2.70;;;21.60;1.00;;;;;;5115283;28;20453;-68
2021/06/19 02:56:57;;;;;;;58.43;2.40;;;21.60;1.00;;;;;;5115055;28;20883;-67
2021/06/19 02:59:24;;;;;;;58.37;2.47;;;21.60;1.00;;;;;;5114894;28;20557;-68
2021/06/19 03:01:51;;;;;;;58.47;2.60;;;21.60;1.00;;;;;;5114880;28;20531;-68
2021/06/19 03:04:20;;;;;;;58.50;2.60;;;21.60;1.00;;;;;;5115250;28;20487;-69
2021/06/19 03:06:47;;;;;;;58.33;2.30;;;21.60;1.00;;;;;;5114755;28;20940;-67
2021/06/19 03:09:15;;;;;;;58.30;2.73;;;21.60;1.00;;;;;;5114765;28;20617;-68
2021/06/19 03:11:42;;;;;;;58.43;2.50;;;21.50;1.00;;;;;;5114812;28;20856;-68
2021/06/19 03:14:09;;;;;;;58.27;2.70;;;21.50;1.00;;;;;;5114753;28;20891;-68
2021/06/19 03:16:36;;;;;;;59.00;3.47;;;21.60;1.00;;;;;;5114590;28;20954;-67
2021/06/19 03:19:05;;;;;;;58.80;2.97;;;21.50;1.00;;;;;;5114799;28;20827;-67
2021/06/19 03:21:32;;;;;;;58.47;2.60;;;21.50;1.00;;;;;;5114727;28;20506;-67
2021/06/19 03:23:59;;;;;;;58.50;2.70;;;21.50;1.00;;;;;;5114729;28;20550;-68
2021/06/19 03:26:27;;;;;;;58.47;2.70;;;21.40;1.00;;;;;;5114368;28;20962;-67
2021/06/19 03:28:54;;;;;;;58.60;2.70;;;21.40;1.00;;;;;;5114335;28;20576;-68
2021/06/19 03:31:21;;;;;;;58.40;2.70;;;21.40;1.00;;;;;;5114666;28;20444;-68
2021/06/19 03:33:47;;;;;;;58.27;2.60;;;21.40;1.00;;;;;;5114601;28;20526;-67
2021/06/19 03:36:14;;;;;;;58.97;3.70;;;21.50;1.00;;;;;;5114419;28;20451;-68
2021/06/19 03:38:41;;;;;;;58.50;2.53;;;21.50;1.00;;;;;;5114376;28;20503;-68
2021/06/19 03:41:08;;;;;;;58.37;2.73;;;21.50;1.00;;;;;;5114236;28;21030;-68
2021/06/19 03:43:36;;;;;;;58.37;2.50;;;21.50;1.00;;;;;;5114197;28;20450;-69
2021/06/19 03:46:03;;;;;;;58.33;3.13;;;21.50;1.00;;;;;;5114224;28;20540;-69
2021/06/19 03:48:30;;;;;;;58.27;2.67;;;21.50;1.00;;;;;;5114074;28;20567;-68
2021/06/19 03:50:56;;;;;;;58.23;2.70;;;21.50;1.00;;;;;;5114560;28;20499;-68
2021/06/19 03:53:23;;;;;;;58.27;2.70;;;21.50;1.00;;;;;;5114085;28;20448;-68
2021/06/19 03:55:50;;;;;;;58.57;2.70;;;21.40;1.00;;;;;;5113850;28;21010;-67
2021/06/19 03:58:17;;;;;;;58.73;2.93;;;21.40;1.00;;;;;;5114022;28;20550;-67
2021/06/19 04:00:46;;;;;;;58.37;2.67;;;21.40;1.00;;;;;;5114165;28;20440;-68
2021/06/19 04:03:13;;;;;;;58.37;2.80;;;21.40;1.00;;;;;;5113954;28;20574;-67
2021/06/19 04:05:39;;;;;;;58.63;2.80;;;21.40;1.00;;;;;;5113897;28;20475;-67
2021/06/19 04:08:06;;;;;;;58.57;3.10;;;21.60;1.00;;;;;;5113586;28;20539;-68
2021/06/19 04:10:33;;;;;;;58.00;2.70;;;21.40;1.00;;;;;;5113554;28;20570;-67
2021/06/19 04:13:01;;;;;;;58.27;2.60;;;21.50;1.00;;;;;;5113655;28;20452;-68
2021/06/19 04:15:27;;;;;;;58.40;2.40;;;21.60;1.00;;;;;;5113915;28;20888;-68
2021/06/19 04:17:56;;;;;;;58.27;2.60;;;21.70;1.00;;;;;;5113580;28;20892;-67
2021/06/19 04:20:23;;;;;;;58.70;3.00;;;21.80;1.00;;;;;;5113944;28;20535;-68
2021/06/19 04:22:50;;;;;;;58.37;2.57;;;21.80;1.00;;;;;;5113328;28;20534;-68
2021/06/19 04:25:18;;;;;;;58.50;2.90;;;21.80;1.00;;;;;;5113790;28;20531;-67
2021/06/19 04:27:49;;;;;;;58.17;2.50;;;21.90;1.00;;;;;;5113378;28;20480;-67
2021/06/19 04:30:17;;;;;;;58.80;3.03;;;21.90;1.00;;;;;;5113358;28;20569;-67
2021/06/19 04:32:45;;;;;;;58.40;2.60;;;21.90;1.00;;;;;;5113351;28;20499;-68
2021/06/19 04:35:15;;;;;;;58.50;2.70;;;22.00;1.00;;;;;;5113264;28;20547;-67
2021/06/19 04:37:43;;;;;;;59.00;3.13;;;21.90;1.00;;;;;;5112976;28;20448;-68
2021/06/19 04:40:15;;;;;;;58.27;2.50;;;21.90;1.00;;;;;;5113294;28;20911;-67
2021/06/19 04:42:45;;;;;;;58.30;2.70;;;21.90;1.00;;;;;;5113029;28;20458;-67
2021/06/19 04:45:14;;;;;;;59.63;3.47;;;21.80;1.00;;;;;;5113262;27;20891;-68
2021/06/19 04:47:41;;;;;;;58.83;3.10;;;21.80;1.00;;;;;;5112701;28;20547;-67
2021/06/19 04:50:10;;;;;;;59.30;4.13;;;21.80;1.00;;;;;;5112723;28;20575;-68
2021/06/19 04:52:42;;;;;;;58.07;2.87;;;21.70;1.00;;;;;;5112766;28;20481;-68
2021/06/19 04:55:14;;;;;;;58.83;2.77;;;21.80;1.00;;;;;;5112865;28;21083;-67
2021/06/19 04:57:41;;;;;;;58.60;3.10;;;21.80;1.00;;;;;;5112183;28;20840;-69
2021/06/19 05:00:09;;;;;;;58.27;2.93;;;21.90;1.00;;;;;;5112735;28;20547;-68
2021/06/19 05:02:36;;;;;;;58.27;2.43;;;21.90;1.00;;;;;;5112974;28;20939;-68
2021/06/19 05:05:04;;;;;;;58.93;2.97;;;22.00;1.00;;;;;;5112582;28;20532;-68
2021/06/19 05:07:33;;;;;;;59.13;3.13;;;22.10;1.00;;;;;;5112419;28;20447;-66
2021/06/19 05:10:02;;;;;;;58.27;2.40;;;22.10;1.00;;;;;;5112637;28;20864;-66
2021/06/19 05:12:29;;;;;;;57.93;2.60;;;22.20;1.00;;;;;;5112423;28;20967;-67
2021/06/19 05:14:56;;;;;;;58.70;2.50;;;22.20;1.00;;;;;;5112411;28;20443;-67
2021/06/19 05:17:23;;;;;;;58.37;2.80;;;22.20;1.00;;;;;;5112553;28;20453;-66
2021/06/19 05:19:50;;;;;;;58.47;3.07;;;22.30;1.00;;;;;;5112568;28;20556;-66
2021/06/19 05:22:16;;;;;;;60.20;3.03;;;22.40;1.00;;;;;;5112534;28;20452;-67
2021/06/19 05:24:43;;;;;;;58.47;2.70;;;22.40;1.00;;;;;;5112524;28;20445;-67
2021/06/19 05:27:11;;;;;;;58.50;2.67;;;22.40;1.00;;;;;;5112216;28;20446;-67
2021/06/19 05:29:38;;;;;;;58.27;2.53;;;22.40;1.00;;;;;;5112166;28;20564;-67
2021/06/19 05:32:06;;;;;;;58.30;2.50;;;22.50;1.00;;;;;;5112213;28;20570;-67
2021/06/19 05:34:33;;;;;;;58.77;3.00;;;22.40;1.00;;;;;;5112323;28;20455;-67
2021/06/19 05:37:00;;;;;;;58.57;3.20;;;22.40;1.00;;;;;;5112348;28;20446;-67
2021/06/19 05:39:27;;;;;;;58.07;2.37;;;22.50;1.00;;;;;;5112334;28;20556;-67
2021/06/19 05:41:54;;;;;;;58.07;2.33;;;22.50;1.00;;;;;;5112152;28;20532;-67
2021/06/19 05:44:23;;;;;;;57.97;2.60;;;22.50;1.00;;;;;;5112092;28;20967;-67
2021/06/19 05:46:50;;;;;;;58.43;2.87;;;22.50;1.00;;;;;;5112053;28;20448;-67
2021/06/19 05:49:16;;;;;;;59.10;2.43;;;22.50;1.00;;;;;;5112128;28;20849;-67
2021/06/19 05:51:43;;;;;;;58.23;2.40;;;22.60;1.00;;;;;;5112164;28;20533;-67
2021/06/19 05:54:10;;;;;;;58.77;3.50;;;22.60;1.00;;;;;;5112151;28;20536;-68
2021/06/19 05:56:37;;;;;;;58.40;2.60;;;22.60;1.00;;;;;;5111791;28;20876;-67
2021/06/19 05:59:04;;;;;;;57.93;2.10;;;22.60;1.00;;;;;;5112251;28;20559;-67
2021/06/19 06:01:32;;;;;;;58.00;2.30;;;22.70;1.00;;;;;;5112289;28;20535;-68
2021/06/19 06:04:00;;;;;;;58.70;3.27;;;22.70;1.00;;;;;;5112087;28;20441;-67
2021/06/19 06:06:27;;;;;;;58.30;2.30;;;22.70;1.00;;;;;;5111744;28;20446;-69
2021/06/19 06:08:54;;;;;;;58.27;2.50;;;22.80;1.00;;;;;;5112549;28;20886;-68
2021/06/19 06:11:21;;;;;;;58.90;3.70;;;22.80;1.00;;;;;;5115765;28;20512;-68
2021/06/19 06:13:48;;;;;;;58.60;2.87;;;22.80;1.00;;;;;;5116022;28;20489;-68
2021/06/19 06:16:15;;;;;;;58.30;2.30;;;22.90;1.00;;;;;;5116002;28;20532;-67
2021/06/19 06:18:43;;;;;;;58.00;2.33;;;23.00;1.00;;;;;;5114835;28;20493;-68
2021/06/19 06:21:10;;;;;;;58.70;2.50;;;23.00;1.00;;;;;;5115869;28;20444;-68
2021/06/19 06:23:36;;;;;;;58.07;2.27;;;23.10;1.00;;;;;;5115801;28;20842;-68
2021/06/19 06:26:03;;;;;;;58.07;2.37;;;23.20;1.00;;;;;;5115866;28;20874;-68
2021/06/19 06:28:30;;;;;;;58.90;3.67;;;23.30;1.00;;;;;;5115577;28;21033;-67
2021/06/19 06:30:57;;;;;;;58.00;2.30;;;23.40;1.00;;;;;;5115684;28;20513;-67
2021/06/19 06:33:26;;;;;;;61.07;4.10;;;23.50;1.00;;;;;;5115771;28;20448;-66
2021/06/19 06:35:55;;;;;;;58.07;2.40;;;23.50;1.00;;;;;;5115532;28;20474;-67
2021/06/19 06:38:24;;;;;;;58.53;3.00;;;23.90;1.00;;;;;;5115182;28;20468;-67
2021/06/19 06:40:51;;;;;;;58.70;2.83;;;23.60;1.00;;;;;;5115730;28;20882;-66
2021/06/19 06:43:18;;;;;;;59.50;3.53;;;23.70;1.00;;;;;;5115395;28;20528;-67
2021/06/19 06:45:45;;;;;;;58.07;2.50;;;23.80;1.00;;;;;;5115375;28;20454;-67
2021/06/19 06:48:12;;;;;;;58.20;2.30;;;24.10;1.00;;;;;;5115004;28;20552;-67
2021/06/19 06:50:39;;;;;;;58.40;2.40;;;24.00;1.00;;;;;;5115265;28;20504;-66
2021/06/19 06:53:08;;;;;;;58.70;3.33;;;24.10;1.00;;;;;;5115421;28;20487;-67
2021/06/19 06:55:35;;;;;;;58.27;2.60;;;24.20;1.00;;;;;;5115197;28;20481;-68
2021/06/19 06:58:01;;;;;;;58.17;2.23;;;24.20;1.00;;;;;;5115027;28;20448;-68
2021/06/19 07:00:28;;;;;;;58.10;2.43;;;24.30;1.00;;;;;;5115305;28;20450;-68
2021/06/19 07:02:55;;;;;;;58.17;2.30;;;24.40;1.00;;;;;;5115058;28;20532;-68
2021/06/19 07:05:22;;;;;;;58.40;2.80;;;24.50;1.00;;;;;;5114911;28;20540;-68
2021/06/19 07:07:49;;;;;;;58.50;2.87;;;24.50;1.00;;;;;;5115084;28;20444;-68
2021/06/19 07:10:18;;;;;;;58.60;3.07;;;24.60;1.00;;;;;;5114980;28;20575;-67
2021/06/19 07:12:45;;;;;;;58.97;2.93;;;24.70;1.00;;;;;;5114757;28;20949;-68
2021/06/19 07:15:14;;;;;;;61.27;4.00;;;24.80;1.00;;;;;;5115005;28;20449;-67
2021/06/19 07:17:41;;;;;;;58.40;2.40;;;24.90;1.00;;;;;;5114661;28;20513;-68
2021/06/19 07:20:11;;;;;;;58.17;2.40;;;24.90;1.00;;;;;;5114148;28;20469;-68
2021/06/19 07:22:38;;;;;;;58.30;2.67;;;25.00;1.00;;;;;;5114854;28;20829;-67
2021/06/19 07:25:07;;;;;;;58.40;2.50;;;25.00;1.00;;;;;;5114853;28;20449;-67
2021/06/19 07:27:36;;;;;;;58.70;3.40;;;25.10;1.00;;;;;;5114546;28;20450;-67
2021/06/19 07:30:03;;;;;;;57.87;2.20;;;25.10;1.00;;;;;;5114473;28;21015;-67
2021/06/19 07:32:30;;;;;;;61.43;3.20;;;25.20;1.00;;;;;;5114308;28;20996;-67
2021/06/19 07:34:56;;;;;;;58.27;2.50;;;25.20;1.00;;;;;;5114596;28;20913;-68
2021/06/19 07:37:23;;;;;;;58.10;2.40;;;25.30;1.00;;;;;;5114453;28;20448;-67
2021/06/19 07:39:52;;;;;;;58.20;2.67;;;25.40;1.00;;;;;;5114472;28;20468;-67
2021/06/19 07:42:20;;;;;;;57.90;2.17;;;25.50;1.00;;;;;;5114363;28;20441;-67
2021/06/19 07:44:48;;;;;;;58.07;2.20;;;25.60;1.00;;;;;;5114302;28;20557;-68
2021/06/19 07:47:15;;;;;;;58.50;2.50;;;25.70;1.00;;;;;;5113976;28;20455;-67
2021/06/19 07:49:42;;;;;;;58.10;2.20;;;25.80;1.00;;;;;;5114119;28;20544;-67
2021/06/19 07:52:09;;;;;;;59.07;2.30;;;25.90;1.00;;;;;;5114041;28;20561;-67
2021/06/19 07:54:37;;;;;;;58.33;2.90;;;26.00;1.00;;;;;;5114284;27;20445;-68
2021/06/19 07:57:05;;;;;;;58.90;2.83;;;26.10;1.00;;;;;;5113764;28;21017;-68
2021/06/19 07:59:32;;;;;;;58.20;2.83;;;26.20;1.00;;;;;;5113659;28;20554;-69
2021/06/19 08:02:00;;;;;;;58.07;2.37;;;26.30;1.00;;;;;;5114078;28;20870;-67
2021/06/19 08:04:27;;;;;;;58.67;2.70;;;26.40;1.00;;;;;;5114056;28;20448;-68
2021/06/19 08:06:54;;;;;;;58.40;2.60;;;26.50;1.00;;;;;;5112009;28;20543;-68
2021/06/19 08:09:21;;;;;;;58.00;2.40;;;26.60;1.00;;;;;;5111842;28;20468;-67
2021/06/19 08:11:48;;;;;;;57.93;2.10;;;26.70;1.00;;;;;;5111878;28;20562;-68
2021/06/19 08:14:16;;;;;;;57.77;2.20;;;26.80;1.00;;;;;;5112020;28;20516;-67
2021/06/19 08:16:46;;;;;;;58.07;2.30;;;26.90;1.00;;;;;;5111897;28;20454;-68
2021/06/19 08:19:14;;;;;;;58.00;2.33;;;27.00;1.00;;;;;;5111783;28;20995;-68
2021/06/19 08:21:41;;;;;;;58.40;2.50;;;27.10;1.00;;;;;;5112820;28;20902;-68
2021/06/19 08:24:09;;;;;;;58.17;2.60;;;27.20;1.00;;;;;;5113586;28;20451;-68
2021/06/19 08:26:36;;;;;;;59.30;3.30;;;27.30;1.00;;;;;;5113101;28;20534;-67
2021/06/19 08:29:04;;;;;;;58.10;2.50;;;27.40;1.00;;;;;;5113682;28;20486;-68
2021/06/19 08:31:34;;;;;;;58.90;3.30;;;27.50;1.00;;;;;;5112492;28;20578;-68
2021/06/19 08:34:00;;;;;;;58.10;2.33;;;27.60;1.00;;;;;;5093785;28;20445;-69
2021/06/19 08:36:29;;;;;;;57.87;2.30;;;27.70;1.00;;;;;;5103912;28;20552;-68
2021/06/19 08:38:55;;;;;;;58.37;3.00;;;27.80;1.00;;;;;;5128884;27;20547;-68
2021/06/19 08:41:22;;;;;;;58.60;2.70;;;27.90;1.00;;;;;;5133512;27;20983;-68
2021/06/19 08:43:49;;;;;;;58.00;2.27;;;28.00;1.00;;;;;;5133797;27;20524;-68
2021/06/19 08:46:19;;;;;;;58.50;3.30;;;28.10;1.00;;;;;;5133581;27;20443;-68
2021/06/19 08:48:49;;;;;;;59.80;3.87;;;28.20;1.00;;;;;;5133664;27;20474;-68
2021/06/19 08:51:16;;;;;;;58.07;2.80;;;28.30;1.00;;;;;;5133686;27;20567;-68
2021/06/19 08:53:44;;;;;;;58.27;2.60;;;28.30;1.00;;;;;;5133381;27;20527;-68
2021/06/19 08:56:10;;;;;;;58.03;2.53;;;28.40;1.00;;;;;;5133446;27;20441;-68
2021/06/19 08:58:37;;;;;;;57.97;2.20;;;28.50;1.00;;;;;;5133494;27;20471;-68
2021/06/19 09:01:04;;;;;;;57.80;2.40;;;28.60;1.00;;;;;;5133246;27;20450;-68
2021/06/19 09:03:31;;;;;;;58.77;2.70;;;28.60;1.00;;;;;;5133448;27;20450;-69
2021/06/19 09:06:17;;;;;;;57.90;2.30;;;28.70;1.00;;;;;;5133258;27;20483;-69
2021/06/19 09:11:37;;;;;;;57.93;2.30;;;28.80;1.00;;;;;;5167046;27;20382;-68
2021/06/19 09:14:06;;;;;;;57.90;2.63;;;29.00;1.00;;;;;;5151103;27;20451;-69
2021/06/19 09:16:33;;;;;;;58.27;2.60;;;29.00;1.00;;;;;;5150419;27;20475;-68
2021/06/19 09:19:00;;;;;;;58.03;2.40;;;29.20;1.00;;;;;;5150533;27;21026;-68
2021/06/19 09:21:29;;;;;;;57.80;2.10;;;29.40;1.00;;;;;;5150792;27;20523;-68
2021/06/19 09:23:56;;;;;;;59.10;4.30;;;29.60;1.00;;;;;;5150696;27;21005;-67
2021/06/19 09:26:25;;;;;;;57.97;2.03;;;29.70;1.00;;;;;;5150837;27;20436;-68
2021/06/19 09:29:05;;;;;;;58.57;2.67;;;29.70;1.00;;;;;;5150920;27;20495;-69
2021/06/19 09:31:34;;;;;;;58.10;2.70;;;29.90;1.00;;;;;;5150274;27;20475;-68
2021/06/19 09:34:02;;;;;;;57.87;2.23;;;30.10;1.00;;;;;;5150632;27;20863;-68
2021/06/19 09:36:40;;;;;;;59.37;2.90;;;30.30;1.00;;;;;;5150142;27;20522;-68
2021/06/19 09:39:09;;;;;;;57.87;2.20;;;30.40;1.00;;;;;;5150353;27;20910;-69
2021/06/19 09:41:37;;;;;;;57.90;2.40;;;30.50;1.00;;;;;;5150012;27;20569;-69
2021/06/19 09:44:06;;;;;;;58.10;2.63;;;30.50;1.00;;;;;;5150386;27;20440;-68
2021/06/19 09:46:33;;;;;;;57.93;2.50;;;30.70;1.00;;;;;;5149891;27;20875;-69
2021/06/19 09:49:15;;;;;;;57.80;2.17;;;31.00;1.00;;;;;;5150190;27;20557;-68
2021/06/19 09:51:46;;;;;;;58.00;2.40;;;31.00;1.00;;;;;;5149932;27;20563;-68
2021/06/19 09:54:14;;;;;;;59.67;3.73;;;30.40;1.00;;;;;;5149824;27;20481;-68
2021/06/19 09:56:49;;;;;;;57.87;2.53;;;31.30;1.00;;;;;;5149640;27;20533;-67
2021/06/19 09:59:29;;;;;;;57.87;2.20;;;31.40;1.00;;;;;;5149955;27;20468;-67
2021/06/19 10:01:57;;;;;;;57.77;2.67;;;31.50;1.00;;;;;;5149877;27;20474;-67
2021/06/19 10:04:25;;;;;;;58.00;2.47;;;31.70;1.00;;;;;;5150210;27;20449;-67
2021/06/19 10:06:53;;;;;;;58.07;2.37;;;31.70;1.00;;;;;;5149461;27;20437;-67
2021/06/19 10:09:21;;;;;;;58.50;3.03;;;31.80;1.00;;;;;;5149469;27;20547;-68
2021/06/19 10:11:50;;;;;;;57.93;2.70;;;32.00;1.00;;;;;;5149684;27;20574;-67
2021/06/19 10:14:19;;;;;;;57.77;2.53;;;32.20;1.00;;;;;;5149553;27;20465;-68
2021/06/19 10:16:50;;;;;;;57.57;2.00;;;32.30;1.00;;;;;;5149404;27;20443;-67
2021/06/19 10:19:20;;;;;;;58.47;3.33;;;32.40;1.00;;;;;;5149156;27;20523;-68
2021/06/19 10:21:50;;;;;;;57.80;2.30;;;32.50;1.00;;;;;;5142487;27;20488;-68
2021/06/19 10:24:17;;;;;;;57.70;2.30;;;32.80;1.00;;;;;;5135865;27;20829;-68
2021/06/19 10:26:44;;;;;;;57.70;2.33;;;33.50;1.00;;;;;;5135367;27;20456;-68
2021/06/19 10:29:13;;;;;;;58.30;3.00;;;34.50;1.00;;;;;;5135480;27;20971;-67
2021/06/19 10:31:43;;;;;;;57.40;2.20;;;35.50;1.00;;;;;;5135142;27;20479;-68
2021/06/19 10:34:22;;;;;;;57.43;1.97;;;36.50;1.00;;;;;;5135677;27;20448;-68
2021/06/19 10:36:50;;;;;;;57.50;2.20;;;37.40;1.00;;;;;;5135226;27;20835;-68
2021/06/19 10:39:42;;;;;;;57.83;3.10;;;38.00;1.00;;;;;;5135305;27;20556;-68
2021/06/19 10:42:29;;;;;;;56.97;2.20;;;38.50;1.00;;;;;;5135038;27;20882;-68
2021/06/19 10:45:01;;;;;;;57.40;2.73;;;38.70;1.00;;;;;;5135379;27;20453;-69
2021/06/19 10:47:30;;;;;;;57.37;2.83;;;39.10;1.00;;;;;;5135116;27;20625;-68
2021/06/19 10:49:59;;;;;;;57.17;2.37;;;39.40;1.00;;;;;;5134986;27;20992;-68
2021/06/19 10:52:38;;;;;;;57.90;3.17;;;39.80;1.00;;;;;;5134787;27;20445;-69
2021/06/19 10:55:28;;;;;;;57.17;2.30;;;40.40;1.00;;;;;;5135222;27;20448;-69
2021/06/19 10:57:58;;;;;;;58.73;3.27;;;40.70;1.00;;;;;;5134846;27;20492;-68
2021/06/19 11:00:31;;;;;;;64.90;4.87;;;40.80;1.00;;;;;;5134990;27;20441;-69
2021/06/19 11:02:59;;;;;;;57.43;2.97;;;40.70;1.00;;;;;;5134645;27;20532;-69
2021/06/19 11:05:56;;;;;;;57.00;2.30;;;40.60;1.00;;;;;;5134757;27;20996;-68
2021/06/19 11:08:23;;;;;;;58.20;2.80;;;40.70;1.00;;;;;;5134589;27;20488;-69
2021/06/19 11:10:55;;;;;;;58.90;4.53;;;40.70;1.00;;;;;;5134574;27;20572;-69
2021/06/19 11:13:42;;;;;;;57.37;2.80;;;40.80;1.00;;;;;;5134219;27;20456;-68
2021/06/19 11:16:53;;;;;;;57.27;2.50;;;40.80;1.00;;;;;;5134590;27;20552;-68
2021/06/19 11:19:37;;;;;;;57.50;2.80;;;40.90;1.00;;;;;;5134540;27;20497;-69
2021/06/19 11:22:33;;;;;;;58.07;2.50;;;41.10;1.00;;;;;;5134835;27;20471;-68
2021/06/19 11:25:22;;;;;;;57.50;2.70;;;41.20;1.00;;;;;;5121260;27;20833;-68
2021/06/19 11:27:57;;;;;;;56.87;2.30;;;41.50;1.00;;;;;;5133913;27;20459;-68
2021/06/19 11:30:53;;;;;;;57.37;2.83;;;41.60;1.00;;;;;;5134739;27;20480;-68
2021/06/19 11:33:38;;;;;;;57.10;2.20;;;41.60;1.00;;;;;;5133861;27;20449;-68
2021/06/19 11:36:45;;;;;;;57.80;2.57;;;42.00;1.00;;;;;;5134135;27;20807;-69
2021/06/19 11:39:16;;;;;;;57.60;3.03;;;42.50;1.00;;;;;;5134018;27;20548;-68
2021/06/19 11:41:45;;;;;;;56.87;2.10;;;42.80;1.00;;;;;;5134132;27;20451;-68
2021/06/19 11:44:14;;;;;;;57.00;2.50;;;42.90;1.00;;;;;;5133998;27;20531;-69
2021/06/19 11:46:48;;;;;;;58.37;2.50;;;42.90;1.00;;;;;;5133687;27;20445;-68
2021/06/19 11:49:15;;;;;;;63.37;2.50;;;43.10;1.00;;;;;;5133964;27;20992;-68
2021/06/19 11:51:42;;;;;;;56.80;2.10;;;43.10;1.00;;;;;;5134092;27;20484;-68
2021/06/19 11:54:16;;;;;;;56.57;1.90;;;43.10;1.00;;;;;;5133912;27;20487;-68
2021/06/19 11:56:44;;;;;;;59.40;3.67;;;43.20;1.00;;;;;;5133599;27;20947;-68
2021/06/19 11:59:13;;;;;;;57.10;2.27;;;43.10;1.00;;;;;;5133561;27;20469;-68
2021/06/19 12:01:41;;;;;;;57.10;2.20;;;43.30;1.00;;;;;;5133968;27;21165;-68
2021/06/19 12:04:11;;;;;;;56.50;2.07;;;43.50;1.00;;;;;;5133903;27;20480;-68
2021/06/19 12:06:39;;;;;;;56.60;2.10;;;43.60;1.00;;;;;;5133465;27;20451;-69
2021/06/19 12:09:09;;;;;;;56.57;2.17;;;43.80;1.00;;;;;;5133554;27;20461;-68
2021/06/19 12:11:39;;;;;;;56.10;2.50;;;43.90;1.00;;;;;;5133211;27;20564;-68
2021/06/19 12:14:21;;;;;;;55.93;1.80;;;44.20;1.00;;;;;;5133825;27;20459;-68
2021/06/19 12:16:51;;;;;;;55.77;2.17;;;44.50;1.00;;;;;;5133230;27;20476;-68
2021/06/19 12:19:19;;;;;;;56.80;2.33;;;44.50;1.00;;;;;;5133412;27;20475;-69
2021/06/19 12:21:46;;;;;;;56.27;2.13;;;44.50;1.00;;;;;;5133364;27;20437;-68
2021/06/19 12:24:22;;;;;;;56.63;2.50;;;44.20;1.00;;;;;;5133387;27;20444;-68
2021/06/19 12:27:01;;;;;;;56.67;2.40;;;44.10;1.00;;;;;;5133174;27;20523;-69
2021/06/19 12:29:43;;;;;;;56.50;2.40;;;44.00;1.00;;;;;;5133341;27;20539;-68
2021/06/19 12:32:22;;;;;;;56.33;2.10;;;44.20;1.00;;;;;;5133202;27;20484;-68
2021/06/19 12:34:50;;;;;;;67.33;3.37;;;44.40;1.00;;;;;;5133428;27;20472;-69
2021/06/19 12:37:22;;;;;;;57.00;2.40;;;44.40;1.00;;;;;;5132905;27;20974;-69
2021/06/19 12:39:49;;;;;;;57.00;2.10;;;44.60;1.00;;;;;;5133553;27;20828;-69
2021/06/19 12:42:37;;;;;;;56.17;2.00;;;44.60;1.00;;;;;;5133091;27;20531;-69
2021/06/19 12:45:09;;;;;;;56.10;2.30;;;44.80;1.00;;;;;;5132721;27;20884;-68
2021/06/19 12:47:38;;;;;;;56.90;2.73;;;45.00;1.00;;;;;;5132681;27;20479;-68
2021/06/19 12:50:06;;;;;;;57.20;3.10;;;45.40;1.00;;;;;;5133312;27;20467;-69
2021/06/19 12:52:33;;;;;;;56.77;2.47;;;45.60;1.00;;;;;;5132884;27;20579;-69
2021/06/19 12:55:11;;;;;;;56.53;2.00;;;45.60;1.00;;;;;;5132788;27;20440;-69
2021/06/19 12:57:40;;;;;;;56.50;2.30;;;45.30;1.00;;;;;;5132346;27;20527;-68
2021/06/19 13:00:09;;;;;;;57.57;2.33;;;44.80;1.00;;;;;;5133135;27;20473;-68
2021/06/19 13:02:55;;;;;;;56.07;1.97;;;44.50;1.00;;;;;;5132907;27;20529;-69